createdAt,value
2022-10-18T00:01:48.333Z,1.33
2022-10-18T00:04:16.773Z,1.58
2022-10-18T00:06:45.199Z,1.50
2022-10-18T00:09:13.720Z,1.27
2022-10-18T00:11:42.291Z,1.23
2022-10-18T00:14:10.513Z,1.52
2022-10-18T00:16:38.781Z,1.30
2022-10-18T00:19:07.082Z,1.42
2022-10-18T00:21:35.438Z,1.05
2022-10-18T00:24:03.924Z,1.48
2022-10-18T00:26:32.498Z,1.33
2022-10-18T00:29:04.752Z,1.60
2022-10-18T00:31:38.676Z,1.70
2022-10-18T00:34:10.726Z,1.90
2022-10-18T00:36:39.096Z,1.65
2022-10-18T00:39:08.793Z,1.63
2022-10-18T00:41:38.137Z,2.05
2022-10-18T00:44:07.811Z,1.20
2022-10-18T00:46:39.269Z,1.92
2022-10-18T00:49:25.630Z,2.25
2022-10-18T00:51:59.425Z,1.80
2022-10-18T00:54:28.947Z,1.83
2022-10-18T00:56:57.534Z,1.33
2022-10-18T00:59:26.295Z,1.33
2022-10-18T01:04:23.195Z,1.70
2022-10-18T01:07:09.881Z,2.10
2022-10-18T01:09:44.505Z,1.88
2022-10-18T01:12:45.588Z,1.52
2022-10-18T01:15:20.255Z,2.30
2022-10-18T01:17:51.259Z,2.33
2022-10-18T01:20:22.183Z,1.83
2022-10-18T01:22:59.350Z,1.85
2022-10-18T01:25:57.664Z,1.90
2022-10-18T01:29:01.513Z,1.77
2022-10-18T01:31:38.366Z,1.63
2022-10-18T01:34:10.653Z,1.80
2022-10-18T01:36:46.587Z,2.38
2022-10-18T01:39:27.103Z,2.47
2022-10-18T01:41:56.417Z,1.65
2022-10-18T01:44:27.483Z,2.00
2022-10-18T01:46:57.517Z,2.45
2022-10-18T01:49:26.897Z,2.25
2022-10-18T01:51:55.127Z,2.42
2022-10-18T01:54:30.606Z,2.35
2022-10-18T01:57:20.417Z,2.22
2022-10-18T02:00:02.665Z,1.95
2022-10-18T02:02:50.597Z,2.38
2022-10-18T02:05:37.299Z,1.88
2022-10-18T02:08:24.397Z,2.00
2022-10-18T02:10:56.533Z,2.40
2022-10-18T02:13:29.728Z,1.80
2022-10-18T02:16:04.466Z,2.30
2022-10-18T02:18:40.144Z,2.13
2022-10-18T02:21:10.981Z,2.00
2022-10-18T02:23:39.794Z,2.40
2022-10-18T02:28:35.857Z,1.48
2022-10-18T02:31:20.103Z,1.50
2022-10-18T02:33:58.726Z,1.40
2022-10-18T02:39:06.991Z,1.75
2022-10-18T02:41:35.319Z,1.77
2022-10-18T02:44:03.344Z,1.27
2022-10-18T02:46:31.663Z,1.75
2022-10-18T02:48:59.800Z,1.42
2022-10-18T02:51:27.893Z,1.65
2022-10-18T02:53:56.103Z,1.70
2022-10-18T02:56:24.559Z,1.20
2022-10-18T02:58:52.718Z,1.00
2022-10-18T03:01:21.157Z,1.50
2022-10-18T03:03:49.584Z,1.10
2022-10-18T03:06:17.759Z,1.38
2022-10-18T03:08:46.165Z,1.08
2022-10-18T03:11:14.330Z,1.08
2022-10-18T03:13:42.482Z,1.55
2022-10-18T03:16:10.880Z,0.82
2022-10-18T03:18:39.190Z,1.10
2022-10-18T03:21:08.319Z,0.80
2022-10-18T03:23:36.787Z,1.27
2022-10-18T03:26:04.978Z,0.80
2022-10-18T03:28:33.113Z,0.60
2022-10-18T03:31:02.710Z,1.17
2022-10-18T03:33:32.623Z,0.98
2022-10-18T03:36:00.975Z,0.88
2022-10-18T03:38:29.292Z,0.63
2022-10-18T03:40:57.667Z,0.90
2022-10-18T03:43:25.967Z,0.82
2022-10-18T03:45:54.125Z,0.80
2022-10-18T03:48:22.610Z,0.68
2022-10-18T03:50:51.076Z,0.85
2022-10-18T03:53:19.349Z,0.50
2022-10-18T03:55:55.255Z,0.55
2022-10-18T03:58:24.669Z,0.73
2022-10-18T04:00:54.108Z,0.40
2022-10-18T04:03:23.293Z,0.88
2022-10-18T04:05:51.957Z,0.60
2022-10-18T04:10:48.151Z,0.52
2022-10-18T04:13:16.407Z,0.60
2022-10-18T04:15:44.758Z,0.50
2022-10-18T04:18:12.905Z,0.50
2022-10-18T04:20:41.062Z,0.60
2022-10-18T04:23:09.274Z,0.43
2022-10-18T04:25:37.356Z,0.77
2022-10-18T04:28:05.858Z,0.52
2022-10-18T04:30:34.164Z,0.50
2022-10-18T04:33:02.347Z,0.75
2022-10-18T04:35:30.612Z,0.55
2022-10-18T04:37:58.787Z,0.30
2022-10-18T04:40:26.938Z,0.68
2022-10-18T04:42:55.203Z,0.50
2022-10-18T04:45:23.409Z,0.40
2022-10-18T04:47:51.863Z,0.50
2022-10-18T04:50:20.041Z,0.43
2022-10-18T04:55:16.256Z,0.57
2022-10-18T04:57:44.585Z,0.30
2022-10-18T05:00:13.478Z,0.50
2022-10-18T05:02:41.829Z,0.40
2022-10-18T05:05:13.221Z,0.65
2022-10-18T05:07:42.646Z,0.30
2022-10-18T05:10:10.979Z,0.50
2022-10-18T05:12:39.183Z,0.43
2022-10-18T05:15:07.723Z,0.30
2022-10-18T05:17:36.058Z,0.55
2022-10-18T05:20:05.102Z,0.52
2022-10-18T05:22:33.722Z,0.30
2022-10-18T05:27:30.415Z,0.35
2022-10-18T05:32:33.113Z,0.32
2022-10-18T05:37:29.412Z,0.30
2022-10-18T05:39:57.500Z,0.40
2022-10-18T05:42:25.987Z,0.40
2022-10-18T05:44:54.085Z,0.20
2022-10-18T05:47:22.259Z,0.30
2022-10-18T05:49:50.436Z,0.47
2022-10-18T05:52:18.455Z,0.28
2022-10-18T05:54:46.687Z,0.40
2022-10-18T05:57:15.046Z,0.30
2022-10-18T05:59:43.096Z,0.50
2022-10-18T06:02:13.369Z,0.32
2022-10-18T06:04:41.551Z,0.40
2022-10-18T06:07:11.166Z,0.40
2022-10-18T06:09:39.627Z,0.47
2022-10-18T06:12:07.806Z,0.30
2022-10-18T06:14:37.363Z,0.65
2022-10-18T06:17:05.734Z,0.50
2022-10-18T06:19:33.846Z,0.30
2022-10-18T06:22:02.070Z,0.40
2022-10-18T06:24:30.212Z,0.20
2022-10-18T06:26:58.626Z,0.40
2022-10-18T06:29:26.808Z,0.45
2022-10-18T06:31:55.109Z,0.40
2022-10-18T06:34:23.319Z,0.43
2022-10-18T06:36:54.901Z,0.73
2022-10-18T06:39:25.140Z,0.35
2022-10-18T06:41:53.384Z,0.30
2022-10-18T06:44:24.184Z,0.40
2022-10-18T06:46:52.477Z,0.73
2022-10-18T06:49:20.693Z,0.47
2022-10-18T06:51:48.970Z,0.40
2022-10-18T06:54:18.728Z,0.32
2022-10-18T06:56:47.353Z,0.30
2022-10-18T06:59:15.648Z,0.35
2022-10-18T07:01:44.157Z,0.30
2022-10-18T07:04:12.363Z,0.35
2022-10-18T07:06:40.671Z,0.30
2022-10-18T07:09:08.961Z,0.45
2022-10-18T07:11:37.183Z,0.52
2022-10-18T07:14:05.567Z,0.60
2022-10-18T07:16:34.891Z,0.30
2022-10-18T07:19:03.308Z,0.47
2022-10-18T07:21:31.553Z,0.40
2022-10-18T07:23:59.703Z,0.70
2022-10-18T07:26:33.232Z,0.50
2022-10-18T07:29:05.567Z,0.47
2022-10-18T07:31:34.200Z,0.43
2022-10-18T07:34:04.313Z,0.32
2022-10-18T07:36:32.844Z,0.40
2022-10-18T07:39:01.163Z,0.60
2022-10-18T07:41:29.427Z,0.40
2022-10-18T07:43:57.663Z,0.40
2022-10-18T07:46:25.970Z,0.68
2022-10-18T07:48:54.077Z,0.40
2022-10-18T07:51:22.814Z,0.30
2022-10-18T07:53:51.041Z,0.47
2022-10-18T07:56:22.589Z,0.50
2022-10-18T07:58:53.001Z,0.50
2022-10-18T08:01:23.553Z,0.73
2022-10-18T08:03:52.501Z,0.40
2022-10-18T08:06:22.599Z,0.50
2022-10-18T08:08:50.865Z,0.80
2022-10-18T08:11:21.739Z,0.55
2022-10-18T08:13:50.487Z,0.50
2022-10-18T08:16:25.250Z,0.70
2022-10-18T08:18:54.411Z,0.65
2022-10-18T08:21:22.931Z,0.70
2022-10-18T08:23:51.237Z,0.55
2022-10-18T08:26:21.019Z,0.80
2022-10-18T08:28:58.319Z,0.57
2022-10-18T08:31:32.026Z,0.60
2022-10-18T08:34:00.321Z,0.70
2022-10-18T08:36:28.546Z,0.98
2022-10-18T08:38:56.833Z,0.60
2022-10-18T08:41:43.504Z,0.63
2022-10-18T08:44:25.195Z,0.80
2022-10-18T08:47:07.271Z,0.68
2022-10-18T08:49:47.601Z,0.60
2022-10-18T08:52:47.005Z,0.60
2022-10-18T08:55:27.416Z,0.60
2022-10-18T08:57:57.966Z,0.68
2022-10-18T09:00:33.177Z,0.65
2022-10-18T09:03:19.807Z,0.50
2022-10-18T09:06:01.712Z,0.45
2022-10-18T09:08:42.272Z,0.57
2022-10-18T09:11:30.582Z,0.63
2022-10-18T09:14:23.478Z,0.95
2022-10-18T09:17:06.743Z,0.60
2022-10-18T09:19:56.297Z,0.57
2022-10-18T09:22:49.699Z,0.70
2022-10-18T09:25:22.866Z,0.57
2022-10-18T09:27:55.667Z,0.82
2022-10-18T09:30:36.014Z,0.63
2022-10-18T09:33:36.502Z,0.93
2022-10-18T09:36:09.156Z,0.70
2022-10-18T09:39:00.443Z,0.57
2022-10-18T09:41:31.619Z,0.88
2022-10-18T09:44:26.044Z,0.65
2022-10-18T09:47:18.811Z,1.00
2022-10-18T09:49:58.171Z,0.77
2022-10-18T09:52:40.159Z,0.80
2022-10-18T09:55:20.999Z,0.80
2022-10-18T09:57:57.833Z,0.95
2022-10-18T10:00:35.716Z,0.55
2022-10-18T10:03:12.123Z,0.90
2022-10-18T10:05:40.527Z,0.52
2022-10-18T10:08:09.098Z,0.63
2022-10-18T10:13:16.198Z,1.02
2022-10-18T10:15:53.824Z,1.05
2022-10-18T10:18:35.249Z,1.15
2022-10-18T10:21:23.871Z,1.00
2022-10-18T10:23:56.137Z,1.20
2022-10-18T10:26:34.979Z,0.98
2022-10-18T10:29:03.560Z,0.80
2022-10-18T10:31:33.924Z,0.75
2022-10-18T10:34:13.022Z,1.05
2022-10-18T10:36:54.488Z,1.25
2022-10-18T10:39:25.233Z,0.80
2022-10-18T10:41:58.795Z,0.82
2022-10-18T10:44:31.010Z,0.68
2022-10-18T10:47:00.382Z,1.13
2022-10-18T10:49:46.585Z,0.98
2022-10-18T10:52:28.533Z,0.93
2022-10-18T10:55:11.051Z,0.70
2022-10-18T10:57:49.454Z,1.17
2022-10-18T11:00:53.116Z,0.98
2022-10-18T11:03:29.056Z,1.10
2022-10-18T11:05:58.826Z,1.02
2022-10-18T11:08:32.719Z,1.00
2022-10-18T11:11:26.335Z,1.13
2022-10-18T11:14:26.299Z,1.05
2022-10-18T11:17:13.599Z,0.90
2022-10-18T11:20:20.812Z,0.85
2022-10-18T11:23:02.713Z,0.77
2022-10-18T11:26:12.662Z,0.60
2022-10-18T11:29:03.120Z,0.73
2022-10-18T11:31:51.512Z,0.70
2022-10-18T11:34:59.033Z,1.05
2022-10-18T11:37:48.829Z,0.77
2022-10-18T11:40:38.687Z,0.82
2022-10-18T11:44:01.791Z,0.77
2022-10-18T11:46:51.528Z,0.52
2022-10-18T11:49:43.214Z,0.70
2022-10-18T11:52:45.563Z,0.77
2022-10-18T11:55:37.367Z,0.85
2022-10-18T11:58:47.612Z,1.13
2022-10-18T12:01:48.293Z,1.02
2022-10-18T12:04:25.849Z,0.80
2022-10-18T12:06:57.181Z,1.08
2022-10-18T12:09:43.494Z,0.77
2022-10-18T12:12:20.950Z,0.80
2022-10-18T12:15:02.203Z,1.40
2022-10-18T12:17:49.859Z,0.68
2022-10-18T12:20:31.041Z,0.77
2022-10-18T12:23:11.958Z,0.73
2022-10-18T12:25:43.943Z,0.70
2022-10-18T12:28:33.757Z,0.80
2022-10-18T12:31:26.472Z,0.70
2022-10-18T12:34:01.467Z,0.77
2022-10-18T12:36:44.720Z,0.80
2022-10-18T12:39:32.488Z,0.70
2022-10-18T12:42:43.182Z,0.98
2022-10-18T12:45:14.171Z,0.63
2022-10-18T12:47:42.808Z,0.77
2022-10-18T12:50:27.916Z,0.50
2022-10-18T12:53:13.080Z,0.60
2022-10-18T12:55:47.553Z,0.80
2022-10-18T12:58:15.958Z,0.88
2022-10-18T13:00:44.179Z,0.60
2022-10-18T13:03:15.443Z,1.10
2022-10-18T13:05:53.286Z,0.88
2022-10-18T13:08:28.618Z,1.05
2022-10-18T13:11:09.187Z,0.65
2022-10-18T13:14:16.286Z,0.77
2022-10-18T13:17:03.450Z,0.70
2022-10-18T13:20:25.420Z,0.90
2022-10-18T13:23:27.872Z,0.85
2022-10-18T13:26:20.731Z,0.88
2022-10-18T13:29:34.547Z,1.15
2022-10-18T13:32:24.514Z,1.15
2022-10-18T13:34:52.884Z,0.73
2022-10-18T13:37:24.465Z,0.85
2022-10-18T13:40:17.327Z,1.10
2022-10-18T13:42:45.710Z,1.20
2022-10-18T13:45:32.075Z,0.90
2022-10-18T13:48:32.669Z,0.90
2022-10-18T13:51:30.803Z,1.23
2022-10-18T13:54:08.300Z,0.98
2022-10-18T13:57:05.347Z,0.90
2022-10-18T13:59:46.237Z,1.15
2022-10-18T14:02:52.029Z,0.90
2022-10-18T14:05:32.768Z,1.17
2022-10-18T14:08:26.197Z,0.90
2022-10-18T14:11:26.362Z,0.85
2022-10-18T14:14:03.017Z,1.02
2022-10-18T14:16:31.569Z,1.15
2022-10-18T14:19:23.982Z,0.63
2022-10-18T14:22:04.546Z,0.80
2022-10-18T14:24:33.162Z,0.98
2022-10-18T14:27:21.223Z,0.75
2022-10-18T14:30:07.189Z,0.88
2022-10-18T14:32:35.682Z,0.80
2022-10-18T14:37:55.029Z,1.00
2022-10-18T14:40:41.190Z,0.85
2022-10-18T14:43:13.759Z,0.95
2022-10-18T14:45:45.623Z,1.33
2022-10-18T14:48:18.278Z,1.25
2022-10-18T14:50:56.398Z,1.35
2022-10-18T14:53:24.833Z,1.45
2022-10-18T14:56:01.490Z,1.52
2022-10-18T14:58:29.869Z,1.25
2022-10-18T15:00:59.737Z,1.20
2022-10-18T15:03:28.661Z,1.70
2022-10-18T15:06:00.392Z,1.30
2022-10-18T15:08:38.520Z,1.38
2022-10-18T15:11:10.549Z,1.30
2022-10-18T15:14:06.118Z,1.35
2022-10-18T15:16:35.500Z,1.15
2022-10-18T15:19:28.956Z,1.10
2022-10-18T15:25:09.830Z,2.08
2022-10-18T15:30:18.494Z,1.73
2022-10-18T15:32:52.622Z,1.70
2022-10-18T15:35:29.045Z,1.40
2022-10-18T15:38:21.647Z,1.42
2022-10-18T15:40:50.050Z,1.73
2022-10-18T15:43:27.886Z,1.77
2022-10-18T15:46:05.020Z,1.73
2022-10-18T15:48:36.639Z,1.63
2022-10-18T15:51:07.948Z,1.45
2022-10-18T15:53:50.001Z,1.17
2022-10-18T15:56:40.454Z,1.48
2022-10-18T15:59:26.953Z,2.05
2022-10-18T16:01:55.507Z,1.83
2022-10-18T16:06:52.420Z,1.20
2022-10-18T16:09:22.303Z,1.63
2022-10-18T16:11:55.620Z,1.60
2022-10-18T16:14:26.352Z,1.42
2022-10-18T16:17:02.442Z,1.20
2022-10-18T16:19:32.229Z,1.67
2022-10-18T16:22:06.152Z,1.00
2022-10-18T16:24:35.171Z,1.13
2022-10-18T16:27:03.500Z,1.25
2022-10-18T16:29:31.887Z,1.85
2022-10-18T16:32:00.386Z,1.00
2022-10-18T16:34:28.606Z,1.40
2022-10-18T16:36:57.007Z,1.45
2022-10-18T16:39:25.503Z,1.05
2022-10-18T16:41:53.946Z,1.30
2022-10-18T16:44:22.208Z,1.90
2022-10-18T16:46:52.593Z,0.90
2022-10-18T16:49:25.030Z,1.00
2022-10-18T16:51:54.992Z,0.95
2022-10-18T16:54:23.807Z,0.95
2022-10-18T16:56:52.301Z,1.13
2022-10-18T16:59:30.202Z,0.88
2022-10-18T17:01:58.699Z,1.50
2022-10-18T17:04:27.061Z,1.33
2022-10-18T17:06:57.779Z,0.82
2022-10-18T17:09:29.229Z,1.25
2022-10-18T17:11:57.535Z,1.10
2022-10-18T17:14:25.642Z,1.08
2022-10-18T17:16:55.940Z,1.00
2022-10-18T17:19:25.418Z,0.70
2022-10-18T17:21:55.339Z,1.08
2022-10-18T17:24:25.162Z,0.90
2022-10-18T17:26:53.580Z,1.00
2022-10-18T17:29:21.704Z,0.93
2022-10-18T17:31:52.362Z,1.15
2022-10-18T17:34:21.530Z,0.85
2022-10-18T17:36:49.955Z,0.88
2022-10-18T17:39:18.179Z,1.13
2022-10-18T17:41:46.619Z,0.80
2022-10-18T17:44:15.044Z,1.13
2022-10-18T17:46:43.337Z,0.82
2022-10-18T17:49:11.660Z,1.08
2022-10-18T17:51:40.284Z,1.40
2022-10-18T17:54:08.838Z,1.05
2022-10-18T17:56:37.094Z,0.80
2022-10-18T17:59:05.305Z,1.10
2022-10-18T18:01:33.744Z,0.80
2022-10-18T18:04:03.475Z,1.33
2022-10-18T18:06:34.594Z,0.98
2022-10-18T18:09:11.892Z,1.45
2022-10-18T18:11:42.469Z,1.02
2022-10-18T18:14:12.090Z,0.60
2022-10-18T18:16:43.032Z,1.00
2022-10-18T18:19:11.576Z,0.90
2022-10-18T18:21:40.891Z,0.90
2022-10-18T18:24:09.705Z,0.90
2022-10-18T18:26:39.389Z,1.27
2022-10-18T18:29:07.699Z,0.90
2022-10-18T18:31:38.816Z,0.82
2022-10-18T18:34:10.866Z,0.95
2022-10-18T18:36:39.210Z,1.27
2022-10-18T18:39:08.135Z,1.02
2022-10-18T18:41:36.766Z,0.90
2022-10-18T18:44:06.545Z,0.80
2022-10-18T18:46:36.629Z,1.00
2022-10-18T18:49:06.582Z,0.73
2022-10-18T18:51:35.278Z,0.60
2022-10-18T18:54:06.187Z,0.77
2022-10-18T18:56:34.829Z,0.63
2022-10-18T19:01:33.908Z,1.02
2022-10-18T19:04:02.386Z,0.80
2022-10-18T19:06:39.222Z,0.77
2022-10-18T19:09:11.109Z,1.20
2022-10-18T19:11:40.092Z,1.27
2022-10-18T19:14:08.967Z,0.80
2022-10-18T19:16:57.982Z,1.05
2022-10-18T19:19:28.552Z,0.88
2022-10-18T19:21:59.529Z,1.23
2022-10-18T19:24:29.699Z,0.90
2022-10-18T19:27:03.215Z,0.90
2022-10-18T19:29:36.968Z,1.40
2022-10-18T19:32:08.477Z,1.10
2022-10-18T19:34:37.022Z,1.02
2022-10-18T19:37:05.707Z,1.13
2022-10-18T19:39:35.388Z,1.00
2022-10-18T19:42:06.735Z,1.42
2022-10-18T19:44:36.517Z,1.80
2022-10-18T19:47:06.409Z,1.05
2022-10-18T19:49:34.815Z,1.73
2022-10-18T19:52:03.598Z,1.17
2022-10-18T19:54:31.878Z,1.90
2022-10-18T19:56:59.984Z,1.67
2022-10-18T19:59:28.521Z,1.17
2022-10-18T20:01:56.915Z,1.50
2022-10-18T20:04:25.037Z,1.63
2022-10-18T20:06:53.341Z,1.50
2022-10-18T20:09:21.442Z,1.73
2022-10-18T20:11:49.688Z,1.38
2022-10-18T20:14:17.899Z,2.10
2022-10-18T20:16:46.098Z,1.58
2022-10-18T20:19:14.790Z,1.65
2022-10-18T20:21:43.124Z,1.58
2022-10-18T20:24:12.106Z,1.50
2022-10-18T20:26:40.281Z,1.75
2022-10-18T20:29:08.711Z,2.20
2022-10-18T20:31:37.598Z,1.88
2022-10-18T20:36:42.377Z,2.05
2022-10-18T20:39:13.636Z,1.85
2022-10-18T20:41:42.005Z,1.73
2022-10-18T20:44:14.469Z,2.00
2022-10-18T20:46:43.504Z,1.60
2022-10-18T20:49:14.909Z,2.55
2022-10-18T20:51:43.280Z,1.70
2022-10-18T20:54:12.152Z,2.30
2022-10-18T20:56:40.767Z,1.77
2022-10-18T20:59:09.340Z,1.95
2022-10-18T21:04:08.951Z,1.67
2022-10-18T21:06:42.929Z,1.90
2022-10-18T21:09:16.896Z,1.40
2022-10-18T21:11:48.035Z,2.15
2022-10-18T21:14:21.804Z,1.90
2022-10-18T21:16:52.262Z,1.65
2022-10-18T21:19:23.283Z,2.08
2022-10-18T21:21:55.493Z,2.03
2022-10-18T21:24:24.899Z,1.70
2022-10-18T21:26:53.503Z,1.40
2022-10-18T21:31:55.116Z,1.80
2022-10-18T21:34:23.736Z,2.05
2022-10-18T21:41:57.607Z,1.40
2022-10-18T21:44:26.094Z,1.55
2022-10-18T21:46:54.389Z,1.83
2022-10-18T21:49:22.615Z,1.48
2022-10-18T21:51:50.952Z,1.52
2022-10-18T21:54:19.205Z,1.35
2022-10-18T21:56:47.571Z,1.80
2022-10-18T21:59:16.042Z,1.80
2022-10-18T22:01:44.382Z,1.75
2022-10-18T22:04:24.120Z,1.80
2022-10-18T22:06:53.077Z,1.85
2022-10-18T22:09:21.811Z,2.13
2022-10-18T22:14:20.487Z,1.65
2022-10-18T22:19:17.340Z,1.50
2022-10-18T22:21:45.698Z,1.80
2022-10-18T22:24:13.924Z,2.05
2022-10-18T22:26:43.791Z,1.85
2022-10-18T22:29:16.142Z,1.40
2022-10-18T22:31:47.752Z,1.30
2022-10-18T22:34:18.810Z,1.65
2022-10-18T22:36:47.283Z,1.85
2022-10-18T22:39:15.872Z,1.63
2022-10-18T22:41:44.722Z,1.75
2022-10-18T22:44:14.395Z,1.65
2022-10-18T22:46:43.358Z,1.20
2022-10-18T22:49:12.560Z,1.95
2022-10-18T22:51:41.691Z,1.85
2022-10-18T22:54:10.703Z,2.13
2022-10-18T22:56:39.037Z,1.80
2022-10-18T22:59:07.438Z,1.85
2022-10-18T23:01:36.076Z,1.95
2022-10-18T23:04:04.837Z,1.85
2022-10-18T23:09:06.712Z,1.88
2022-10-18T23:11:35.805Z,1.50
2022-10-18T23:14:05.581Z,1.80
2022-10-18T23:16:33.860Z,2.45
2022-10-18T23:19:02.074Z,1.85
2022-10-18T23:21:30.489Z,2.13
2022-10-18T23:23:58.687Z,1.67
2022-10-18T23:26:28.509Z,1.20
2022-10-18T23:28:57.192Z,1.60
2022-10-18T23:31:31.497Z,2.13
2022-10-18T23:34:02.704Z,1.60
2022-10-18T23:36:33.220Z,1.58
2022-10-18T23:39:01.570Z,1.88
2022-10-18T23:41:29.851Z,1.65
2022-10-18T23:43:58.312Z,1.85
2022-10-18T23:46:26.326Z,1.38
2022-10-18T23:48:54.486Z,1.17
2022-10-18T23:51:22.713Z,1.38
2022-10-18T23:53:50.837Z,1.30
2022-10-18T23:56:19.907Z,1.60
2022-10-18T23:58:48.138Z,1.90
